METAR Data
IDs: Format: Raw Decoded Include TAF

Data at: 0818 UTC 08 May 2021

EGXW 080750Z AUTO 12021KT 6000 -RA BKN050/// 06/04 Q1004